sensor_id;sensor_type;location;lat;lon;timestamp;P1;durP1;ratioP1;P2;durP2;ratioP2
54561;SDS011;40456;53.358;-1.486;2023-02-11T00:01:08;0.73;;;0.73;;
54561;SDS011;40456;53.358;-1.486;2023-02-11T00:03:43;1.30;;;1.05;;
54561;SDS011;40456;53.358;-1.486;2023-02-11T00:06:09;1.08;;;0.98;;
54561;SDS011;40456;53.358;-1.486;2023-02-11T00:08:35;2.35;;;1.10;;
54561;SDS011;40456;53.358;-1.486;2023-02-11T00:11:02;2.78;;;0.80;;
54561;SDS011;40456;53.358;-1.486;2023-02-11T00:13:27;0.93;;;0.70;;
54561;SDS011;40456;53.358;-1.486;2023-02-11T00:15:53;1.00;;;0.80;;
54561;SDS011;40456;53.358;-1.486;2023-02-11T00:18:19;1.02;;;0.82;;
54561;SDS011;40456;53.358;-1.486;2023-02-11T00:20:44;1.23;;;0.65;;
54561;SDS011;40456;53.358;-1.486;2023-02-11T00:23:10;1.77;;;0.93;;
54561;SDS011;40456;53.358;-1.486;2023-02-11T00:25:39;0.65;;;0.65;;
54561;SDS011;40456;53.358;-1.486;2023-02-11T00:28:06;1.17;;;0.77;;
54561;SDS011;40456;53.358;-1.486;2023-02-11T00:30:32;1.98;;;0.60;;
54561;SDS011;40456;53.358;-1.486;2023-02-11T00:32:57;1.30;;;0.68;;
54561;SDS011;40456;53.358;-1.486;2023-02-11T00:35:23;0.93;;;0.88;;
54561;SDS011;40456;53.358;-1.486;2023-02-11T00:37:48;0.68;;;0.65;;
54561;SDS011;40456;53.358;-1.486;2023-02-11T00:40:13;1.38;;;1.00;;
54561;SDS011;40456;53.358;-1.486;2023-02-11T00:42:40;2.78;;;0.82;;
54561;SDS011;40456;53.358;-1.486;2023-02-11T00:45:06;0.85;;;0.60;;
54561;SDS011;40456;53.358;-1.486;2023-02-11T00:47:34;1.55;;;0.80;;
54561;SDS011;40456;53.358;-1.486;2023-02-11T00:50:00;0.70;;;0.70;;
54561;SDS011;40456;53.358;-1.486;2023-02-11T00:52:26;0.70;;;0.50;;
54561;SDS011;40456;53.358;-1.486;2023-02-11T00:54:51;1.95;;;0.60;;
54561;SDS011;40456;53.358;-1.486;2023-02-11T00:57:16;0.52;;;0.52;;
54561;SDS011;40456;53.358;-1.486;2023-02-11T00:59:42;0.90;;;0.80;;
54561;SDS011;40456;53.358;-1.486;2023-02-11T01:02:07;1.83;;;0.85;;
54561;SDS011;40456;53.358;-1.486;2023-02-11T01:04:33;0.60;;;0.60;;
54561;SDS011;40456;53.358;-1.486;2023-02-11T01:06:58;0.93;;;0.88;;
54561;SDS011;40456;53.358;-1.486;2023-02-11T01:09:23;1.05;;;0.70;;
54561;SDS011;40456;53.358;-1.486;2023-02-11T01:11:49;1.02;;;0.77;;
54561;SDS011;40456;53.358;-1.486;2023-02-11T01:14:14;1.75;;;1.05;;
54561;SDS011;40456;53.358;-1.486;2023-02-11T01:16:39;0.68;;;0.68;;
54561;SDS011;40456;53.358;-1.486;2023-02-11T01:19:05;2.70;;;0.70;;
54561;SDS011;40456;53.358;-1.486;2023-02-11T01:21:30;1.42;;;0.73;;
54561;SDS011;40456;53.358;-1.486;2023-02-11T01:23:56;1.20;;;0.88;;
54561;SDS011;40456;53.358;-1.486;2023-02-11T01:26:21;0.85;;;0.60;;
54561;SDS011;40456;53.358;-1.486;2023-02-11T01:28:47;0.82;;;0.73;;
54561;SDS011;40456;53.358;-1.486;2023-02-11T01:31:12;1.58;;;0.75;;
54561;SDS011;40456;53.358;-1.486;2023-02-11T01:33:38;1.02;;;0.68;;
54561;SDS011;40456;53.358;-1.486;2023-02-11T01:36:04;0.80;;;0.70;;
54561;SDS011;40456;53.358;-1.486;2023-02-11T01:38:31;1.05;;;0.73;;
54561;SDS011;40456;53.358;-1.486;2023-02-11T01:43:24;1.33;;;0.70;;
54561;SDS011;40456;53.358;-1.486;2023-02-11T01:48:42;0.40;;;0.40;;
54561;SDS011;40456;53.358;-1.486;2023-02-11T01:51:12;0.40;;;0.40;;
54561;SDS011;40456;53.358;-1.486;2023-02-11T01:53:40;0.50;;;0.40;;
54561;SDS011;40456;53.358;-1.486;2023-02-11T01:56:25;0.50;;;0.40;;
54561;SDS011;40456;53.358;-1.486;2023-02-11T01:59:11;0.82;;;0.50;;
54561;SDS011;40456;53.358;-1.486;2023-02-11T02:01:40;1.45;;;0.30;;
54561;SDS011;40456;53.358;-1.486;2023-02-11T02:04:16;0.60;;;0.60;;
54561;SDS011;40456;53.358;-1.486;2023-02-11T02:06:45;0.40;;;0.38;;
54561;SDS011;40456;53.358;-1.486;2023-02-11T02:09:20;1.77;;;0.30;;
54561;SDS011;40456;53.358;-1.486;2023-02-11T02:11:47;1.40;;;0.57;;
54561;SDS011;40456;53.358;-1.486;2023-02-11T02:14:13;1.73;;;0.30;;
54561;SDS011;40456;53.358;-1.486;2023-02-11T02:16:38;0.28;;;0.28;;
54561;SDS011;40456;53.358;-1.486;2023-02-11T02:27:44;0.32;;;0.30;;
54561;SDS011;40456;53.358;-1.486;2023-02-11T02:38:12;0.35;;;0.30;;
54561;SDS011;40456;53.358;-1.486;2023-02-11T02:40:49;0.30;;;0.30;;
54561;SDS011;40456;53.358;-1.486;2023-02-11T02:43:19;0.30;;;0.20;;
54561;SDS011;40456;53.358;-1.486;2023-02-11T02:45:45;0.55;;;0.28;;
54561;SDS011;40456;53.358;-1.486;2023-02-11T02:48:24;1.10;;;0.40;;
54561;SDS011;40456;53.358;-1.486;2023-02-11T02:50:57;1.77;;;0.30;;
54561;SDS011;40456;53.358;-1.486;2023-02-11T02:59:03;0.35;;;0.30;;
54561;SDS011;40456;53.358;-1.486;2023-02-11T03:10:33;0.20;;;0.20;;
54561;SDS011;40456;53.358;-1.486;2023-02-11T03:13:01;0.20;;;0.20;;
54561;SDS011;40456;53.358;-1.486;2023-02-11T03:15:28;0.20;;;0.17;;
54561;SDS011;40456;53.358;-1.486;2023-02-11T03:17:56;0.20;;;0.20;;
54561;SDS011;40456;53.358;-1.486;2023-02-11T03:20:23;0.00;;;0.00;;
54561;SDS011;40456;53.358;-1.486;2023-02-11T03:23:09;0.45;;;0.20;;
54561;SDS011;40456;53.358;-1.486;2023-02-11T03:25:36;0.10;;;0.10;;
54561;SDS011;40456;53.358;-1.486;2023-02-11T03:28:46;0.35;;;0.20;;
54561;SDS011;40456;53.358;-1.486;2023-02-11T03:31:43;0.38;;;0.38;;
54561;SDS011;40456;53.358;-1.486;2023-02-11T03:34:17;0.60;;;0.20;;
54561;SDS011;40456;53.358;-1.486;2023-02-11T03:36:55;0.63;;;0.22;;
54561;SDS011;40456;53.358;-1.486;2023-02-11T03:39:30;0.43;;;0.10;;
54561;SDS011;40456;53.358;-1.486;2023-02-11T03:41:59;0.32;;;0.20;;
54561;SDS011;40456;53.358;-1.486;2023-02-11T03:44:27;0.30;;;0.22;;
54561;SDS011;40456;53.358;-1.486;2023-02-11T03:46:55;0.22;;;0.17;;
54561;SDS011;40456;53.358;-1.486;2023-02-11T03:49:21;0.47;;;0.20;;
54561;SDS011;40456;53.358;-1.486;2023-02-11T03:51:49;0.20;;;0.20;;
54561;SDS011;40456;53.358;-1.486;2023-02-11T03:54:18;0.40;;;0.20;;
54561;SDS011;40456;53.358;-1.486;2023-02-11T03:56:57;1.35;;;0.20;;
54561;SDS011;40456;53.358;-1.486;2023-02-11T03:59:23;0.25;;;0.17;;
54561;SDS011;40456;53.358;-1.486;2023-02-11T04:01:49;0.10;;;0.10;;
54561;SDS011;40456;53.358;-1.486;2023-02-11T04:04:15;0.13;;;0.10;;
54561;SDS011;40456;53.358;-1.486;2023-02-11T04:06:41;0.30;;;0.20;;
54561;SDS011;40456;53.358;-1.486;2023-02-11T04:09:07;0.10;;;0.10;;
54561;SDS011;40456;53.358;-1.486;2023-02-11T04:11:32;0.17;;;0.15;;
54561;SDS011;40456;53.358;-1.486;2023-02-11T04:13:58;1.33;;;0.22;;
54561;SDS011;40456;53.358;-1.486;2023-02-11T04:16:23;0.10;;;0.10;;
54561;SDS011;40456;53.358;-1.486;2023-02-11T04:18:48;0.08;;;0.08;;
54561;SDS011;40456;53.358;-1.486;2023-02-11T04:21:14;0.10;;;0.10;;
54561;SDS011;40456;53.358;-1.486;2023-02-11T04:23:39;0.68;;;0.30;;
54561;SDS011;40456;53.358;-1.486;2023-02-11T04:26:05;2.17;;;0.30;;
54561;SDS011;40456;53.358;-1.486;2023-02-11T04:28:30;0.10;;;0.10;;
54561;SDS011;40456;53.358;-1.486;2023-02-11T04:30:56;2.92;;;0.20;;
54561;SDS011;40456;53.358;-1.486;2023-02-11T04:33:21;0.10;;;0.10;;
54561;SDS011;40456;53.358;-1.486;2023-02-11T04:35:47;2.85;;;0.20;;
54561;SDS011;40456;53.358;-1.486;2023-02-11T04:38:13;0.22;;;0.10;;
54561;SDS011;40456;53.358;-1.486;2023-02-11T04:40:38;0.28;;;0.28;;
54561;SDS011;40456;53.358;-1.486;2023-02-11T04:43:04;1.05;;;0.17;;
54561;SDS011;40456;53.358;-1.486;2023-02-11T04:45:29;0.70;;;0.15;;
54561;SDS011;40456;53.358;-1.486;2023-02-11T04:47:55;0.45;;;0.30;;
54561;SDS011;40456;53.358;-1.486;2023-02-11T04:50:20;0.20;;;0.20;;
54561;SDS011;40456;53.358;-1.486;2023-02-11T04:52:45;0.35;;;0.20;;
54561;SDS011;40456;53.358;-1.486;2023-02-11T04:55:11;1.60;;;0.52;;
54561;SDS011;40456;53.358;-1.486;2023-02-11T04:57:37;0.20;;;0.20;;
54561;SDS011;40456;53.358;-1.486;2023-02-11T05:00:03;0.20;;;0.20;;
54561;SDS011;40456;53.358;-1.486;2023-02-11T05:02:29;0.38;;;0.20;;
54561;SDS011;40456;53.358;-1.486;2023-02-11T05:04:54;0.52;;;0.15;;
54561;SDS011;40456;53.358;-1.486;2023-02-11T05:07:19;2.92;;;0.30;;
54561;SDS011;40456;53.358;-1.486;2023-02-11T05:09:45;0.10;;;0.10;;
54561;SDS011;40456;53.358;-1.486;2023-02-11T05:12:10;0.20;;;0.20;;
54561;SDS011;40456;53.358;-1.486;2023-02-11T05:14:35;0.90;;;0.32;;
54561;SDS011;40456;53.358;-1.486;2023-02-11T05:17:01;2.28;;;0.10;;
54561;SDS011;40456;53.358;-1.486;2023-02-11T05:19:26;0.20;;;0.20;;
54561;SDS011;40456;53.358;-1.486;2023-02-11T05:21:51;0.47;;;0.22;;
54561;SDS011;40456;53.358;-1.486;2023-02-11T05:24:17;0.28;;;0.22;;
54561;SDS011;40456;53.358;-1.486;2023-02-11T05:26:43;0.28;;;0.20;;
54561;SDS011;40456;53.358;-1.486;2023-02-11T05:29:08;2.95;;;0.30;;
54561;SDS011;40456;53.358;-1.486;2023-02-11T05:31:34;0.25;;;0.20;;
54561;SDS011;40456;53.358;-1.486;2023-02-11T05:33:59;0.20;;;0.20;;
54561;SDS011;40456;53.358;-1.486;2023-02-11T05:36:27;0.95;;;0.30;;
54561;SDS011;40456;53.358;-1.486;2023-02-11T05:38:53;0.20;;;0.10;;
54561;SDS011;40456;53.358;-1.486;2023-02-11T05:41:18;0.20;;;0.20;;
54561;SDS011;40456;53.358;-1.486;2023-02-11T05:43:43;0.25;;;0.20;;
54561;SDS011;40456;53.358;-1.486;2023-02-11T05:46:09;0.10;;;0.10;;
54561;SDS011;40456;53.358;-1.486;2023-02-11T05:48:34;0.88;;;0.10;;
54561;SDS011;40456;53.358;-1.486;2023-02-11T05:51:00;0.28;;;0.25;;
54561;SDS011;40456;53.358;-1.486;2023-02-11T05:53:25;0.28;;;0.28;;
54561;SDS011;40456;53.358;-1.486;2023-02-11T05:55:50;0.28;;;0.22;;
54561;SDS011;40456;53.358;-1.486;2023-02-11T05:58:16;0.40;;;0.20;;
54561;SDS011;40456;53.358;-1.486;2023-02-11T06:00:41;0.88;;;0.28;;
54561;SDS011;40456;53.358;-1.486;2023-02-11T06:03:06;1.45;;;0.68;;
54561;SDS011;40456;53.358;-1.486;2023-02-11T06:05:32;2.08;;;0.30;;
54561;SDS011;40456;53.358;-1.486;2023-02-11T06:07:58;0.60;;;0.47;;
54561;SDS011;40456;53.358;-1.486;2023-02-11T06:10:23;1.73;;;0.40;;
54561;SDS011;40456;53.358;-1.486;2023-02-11T06:12:48;0.28;;;0.20;;
54561;SDS011;40456;53.358;-1.486;2023-02-11T06:15:14;0.52;;;0.20;;
54561;SDS011;40456;53.358;-1.486;2023-02-11T06:17:39;1.35;;;0.32;;
54561;SDS011;40456;53.358;-1.486;2023-02-11T06:20:05;0.40;;;0.30;;
54561;SDS011;40456;53.358;-1.486;2023-02-11T06:22:32;1.35;;;0.40;;
54561;SDS011;40456;53.358;-1.486;2023-02-11T06:24:58;1.08;;;0.20;;
54561;SDS011;40456;53.358;-1.486;2023-02-11T06:27:23;0.22;;;0.17;;
54561;SDS011;40456;53.358;-1.486;2023-02-11T06:29:48;1.35;;;0.20;;
54561;SDS011;40456;53.358;-1.486;2023-02-11T06:32:16;0.10;;;0.10;;
54561;SDS011;40456;53.358;-1.486;2023-02-11T06:34:41;0.35;;;0.30;;
54561;SDS011;40456;53.358;-1.486;2023-02-11T06:37:07;1.00;;;0.32;;
54561;SDS011;40456;53.358;-1.486;2023-02-11T06:39:32;0.30;;;0.20;;
54561;SDS011;40456;53.358;-1.486;2023-02-11T06:41:57;0.10;;;0.10;;
54561;SDS011;40456;53.358;-1.486;2023-02-11T06:44:23;0.10;;;0.10;;
54561;SDS011;40456;53.358;-1.486;2023-02-11T06:46:48;0.65;;;0.30;;
54561;SDS011;40456;53.358;-1.486;2023-02-11T06:49:13;0.98;;;0.20;;
54561;SDS011;40456;53.358;-1.486;2023-02-11T06:51:39;0.50;;;0.20;;
54561;SDS011;40456;53.358;-1.486;2023-02-11T06:54:05;0.35;;;0.10;;
54561;SDS011;40456;53.358;-1.486;2023-02-11T06:56:31;0.80;;;0.20;;
54561;SDS011;40456;53.358;-1.486;2023-02-11T06:58:56;1.25;;;0.20;;
54561;SDS011;40456;53.358;-1.486;2023-02-11T07:01:22;0.20;;;0.20;;
54561;SDS011;40456;53.358;-1.486;2023-02-11T07:03:49;0.08;;;0.03;;
54561;SDS011;40456;53.358;-1.486;2023-02-11T07:06:18;0.15;;;0.10;;
54561;SDS011;40456;53.358;-1.486;2023-02-11T07:08:45;0.65;;;0.30;;
54561;SDS011;40456;53.358;-1.486;2023-02-11T07:11:14;0.40;;;0.30;;
54561;SDS011;40456;53.358;-1.486;2023-02-11T07:13:44;0.10;;;0.10;;
54561;SDS011;40456;53.358;-1.486;2023-02-11T07:16:11;0.20;;;0.20;;
54561;SDS011;40456;53.358;-1.486;2023-02-11T07:18:38;0.75;;;0.28;;
54561;SDS011;40456;53.358;-1.486;2023-02-11T07:21:05;0.88;;;0.17;;
54561;SDS011;40456;53.358;-1.486;2023-02-11T07:23:31;1.20;;;0.10;;
54561;SDS011;40456;53.358;-1.486;2023-02-11T07:25:57;0.30;;;0.10;;
54561;SDS011;40456;53.358;-1.486;2023-02-11T07:28:26;0.73;;;0.30;;
54561;SDS011;40456;53.358;-1.486;2023-02-11T07:30:51;0.40;;;0.20;;
54561;SDS011;40456;53.358;-1.486;2023-02-11T07:33:16;0.75;;;0.20;;
54561;SDS011;40456;53.358;-1.486;2023-02-11T07:35:42;0.20;;;0.20;;
54561;SDS011;40456;53.358;-1.486;2023-02-11T07:38:07;0.30;;;0.20;;
54561;SDS011;40456;53.358;-1.486;2023-02-11T07:40:33;0.15;;;0.10;;
54561;SDS011;40456;53.358;-1.486;2023-02-11T07:42:59;0.38;;;0.17;;
54561;SDS011;40456;53.358;-1.486;2023-02-11T07:45:25;0.10;;;0.10;;
54561;SDS011;40456;53.358;-1.486;2023-02-11T07:47:50;0.75;;;0.22;;
54561;SDS011;40456;53.358;-1.486;2023-02-11T07:50:16;0.20;;;0.20;;
54561;SDS011;40456;53.358;-1.486;2023-02-11T07:52:41;0.20;;;0.20;;
54561;SDS011;40456;53.358;-1.486;2023-02-11T07:55:07;0.47;;;0.10;;
54561;SDS011;40456;53.358;-1.486;2023-02-11T07:57:33;0.40;;;0.10;;
54561;SDS011;40456;53.358;-1.486;2023-02-11T07:59:59;0.47;;;0.30;;
54561;SDS011;40456;53.358;-1.486;2023-02-11T08:02:24;0.20;;;0.20;;
54561;SDS011;40456;53.358;-1.486;2023-02-11T08:04:50;0.17;;;0.10;;
54561;SDS011;40456;53.358;-1.486;2023-02-11T08:07:15;0.50;;;0.30;;
54561;SDS011;40456;53.358;-1.486;2023-02-11T08:09:41;0.90;;;0.30;;
54561;SDS011;40456;53.358;-1.486;2023-02-11T08:12:07;0.55;;;0.35;;
54561;SDS011;40456;53.358;-1.486;2023-02-11T08:14:32;0.60;;;0.40;;
54561;SDS011;40456;53.358;-1.486;2023-02-11T08:16:57;0.30;;;0.30;;
54561;SDS011;40456;53.358;-1.486;2023-02-11T08:19:23;0.98;;;0.40;;
54561;SDS011;40456;53.358;-1.486;2023-02-11T08:21:48;0.68;;;0.20;;
54561;SDS011;40456;53.358;-1.486;2023-02-11T08:24:13;0.82;;;0.30;;
54561;SDS011;40456;53.358;-1.486;2023-02-11T08:26:39;0.43;;;0.30;;
54561;SDS011;40456;53.358;-1.486;2023-02-11T08:29:07;0.65;;;0.30;;
54561;SDS011;40456;53.358;-1.486;2023-02-11T08:31:35;0.17;;;0.17;;
54561;SDS011;40456;53.358;-1.486;2023-02-11T08:34:01;0.40;;;0.30;;
54561;SDS011;40456;53.358;-1.486;2023-02-11T08:36:31;0.68;;;0.20;;
54561;SDS011;40456;53.358;-1.486;2023-02-11T08:38:58;0.35;;;0.30;;
54561;SDS011;40456;53.358;-1.486;2023-02-11T08:41:27;0.90;;;0.30;;
54561;SDS011;40456;53.358;-1.486;2023-02-11T08:43:53;0.17;;;0.17;;
54561;SDS011;40456;53.358;-1.486;2023-02-11T08:46:19;0.25;;;0.20;;
54561;SDS011;40456;53.358;-1.486;2023-02-11T08:48:44;0.70;;;0.30;;
54561;SDS011;40456;53.358;-1.486;2023-02-11T08:51:19;0.90;;;0.20;;
54561;SDS011;40456;53.358;-1.486;2023-02-11T08:53:46;0.20;;;0.20;;
54561;SDS011;40456;53.358;-1.486;2023-02-11T08:56:13;1.88;;;0.25;;
54561;SDS011;40456;53.358;-1.486;2023-02-11T08:58:39;0.80;;;0.30;;
54561;SDS011;40456;53.358;-1.486;2023-02-11T09:01:12;0.40;;;0.30;;
54561;SDS011;40456;53.358;-1.486;2023-02-11T09:03:42;0.63;;;0.13;;
54561;SDS011;40456;53.358;-1.486;2023-02-11T09:06:08;0.20;;;0.20;;
54561;SDS011;40456;53.358;-1.486;2023-02-11T09:08:40;0.55;;;0.25;;
54561;SDS011;40456;53.358;-1.486;2023-02-11T09:11:07;0.20;;;0.17;;
54561;SDS011;40456;53.358;-1.486;2023-02-11T09:13:32;0.90;;;0.55;;
54561;SDS011;40456;53.358;-1.486;2023-02-11T09:15:58;0.40;;;0.30;;
54561;SDS011;40456;53.358;-1.486;2023-02-11T09:18:24;1.00;;;0.30;;
54561;SDS011;40456;53.358;-1.486;2023-02-11T09:20:50;1.27;;;0.40;;
54561;SDS011;40456;53.358;-1.486;2023-02-11T09:23:15;0.55;;;0.25;;
54561;SDS011;40456;53.358;-1.486;2023-02-11T09:25:41;0.10;;;0.10;;
54561;SDS011;40456;53.358;-1.486;2023-02-11T09:28:07;0.17;;;0.17;;
54561;SDS011;40456;53.358;-1.486;2023-02-11T09:30:33;0.47;;;0.20;;
54561;SDS011;40456;53.358;-1.486;2023-02-11T09:32:59;0.28;;;0.28;;
54561;SDS011;40456;53.358;-1.486;2023-02-11T09:35:25;1.30;;;0.30;;
54561;SDS011;40456;53.358;-1.486;2023-02-11T09:37:50;0.20;;;0.20;;
54561;SDS011;40456;53.358;-1.486;2023-02-11T09:40:16;0.75;;;0.20;;
54561;SDS011;40456;53.358;-1.486;2023-02-11T09:45:30;2.20;;;0.25;;
54561;SDS011;40456;53.358;-1.486;2023-02-11T09:48:16;0.17;;;0.17;;
54561;SDS011;40456;53.358;-1.486;2023-02-11T09:50:43;1.60;;;0.30;;
54561;SDS011;40456;53.358;-1.486;2023-02-11T09:55:44;0.28;;;0.28;;
54561;SDS011;40456;53.358;-1.486;2023-02-11T09:58:14;0.63;;;0.32;;
54561;SDS011;40456;53.358;-1.486;2023-02-11T10:00:51;0.85;;;0.30;;
54561;SDS011;40456;53.358;-1.486;2023-02-11T10:19:45;2.08;;;0.50;;
54561;SDS011;40456;53.358;-1.486;2023-02-11T10:22:36;1.27;;;0.30;;
54561;SDS011;40456;53.358;-1.486;2023-02-11T10:25:16;0.55;;;0.43;;
54561;SDS011;40456;53.358;-1.486;2023-02-11T10:27:44;1.30;;;0.30;;
54561;SDS011;40456;53.358;-1.486;2023-02-11T10:30:25;1.27;;;0.28;;
54561;SDS011;40456;53.358;-1.486;2023-02-11T10:32:59;0.30;;;0.13;;
54561;SDS011;40456;53.358;-1.486;2023-02-11T10:35:28;0.25;;;0.22;;
54561;SDS011;40456;53.358;-1.486;2023-02-11T10:37:54;0.65;;;0.20;;
54561;SDS011;40456;53.358;-1.486;2023-02-11T10:40:27;0.70;;;0.40;;
54561;SDS011;40456;53.358;-1.486;2023-02-11T10:42:57;0.55;;;0.05;;
54561;SDS011;40456;53.358;-1.486;2023-02-11T10:45:41;0.55;;;0.28;;
54561;SDS011;40456;53.358;-1.486;2023-02-11T10:53:37;0.68;;;0.13;;
54561;SDS011;40456;53.358;-1.486;2023-02-11T10:56:03;0.40;;;0.40;;
54561;SDS011;40456;53.358;-1.486;2023-02-11T10:58:43;0.45;;;0.25;;
54561;SDS011;40456;53.358;-1.486;2023-02-11T11:01:10;0.10;;;0.10;;
54561;SDS011;40456;53.358;-1.486;2023-02-11T11:03:37;0.85;;;0.32;;
54561;SDS011;40456;53.358;-1.486;2023-02-11T11:06:05;0.32;;;0.17;;
54561;SDS011;40456;53.358;-1.486;2023-02-11T11:08:37;0.73;;;0.25;;
54561;SDS011;40456;53.358;-1.486;2023-02-11T11:11:14;0.65;;;0.30;;
54561;SDS011;40456;53.358;-1.486;2023-02-11T11:13:53;0.88;;;0.32;;
54561;SDS011;40456;53.358;-1.486;2023-02-11T11:18:50;0.40;;;0.20;;
54561;SDS011;40456;53.358;-1.486;2023-02-11T11:21:18;0.55;;;0.30;;
54561;SDS011;40456;53.358;-1.486;2023-02-11T11:24:02;0.40;;;0.30;;
54561;SDS011;40456;53.358;-1.486;2023-02-11T11:26:37;1.52;;;0.57;;
54561;SDS011;40456;53.358;-1.486;2023-02-11T11:29:14;1.30;;;0.70;;
54561;SDS011;40456;53.358;-1.486;2023-02-11T11:31:49;0.70;;;0.70;;
54561;SDS011;40456;53.358;-1.486;2023-02-11T11:34:26;0.90;;;0.55;;
54561;SDS011;40456;53.358;-1.486;2023-02-11T11:36:54;1.77;;;0.70;;
54561;SDS011;40456;53.358;-1.486;2023-02-11T11:39:25;2.63;;;0.80;;
54561;SDS011;40456;53.358;-1.486;2023-02-11T11:41:53;0.70;;;0.60;;
54561;SDS011;40456;53.358;-1.486;2023-02-11T11:47:38;2.00;;;0.70;;
54561;SDS011;40456;53.358;-1.486;2023-02-11T11:52:26;0.88;;;0.50;;
54561;SDS011;40456;53.358;-1.486;2023-02-11T11:55:10;1.00;;;0.50;;
54561;SDS011;40456;53.358;-1.486;2023-02-11T11:57:40;1.17;;;0.40;;
54561;SDS011;40456;53.358;-1.486;2023-02-11T12:00:12;0.95;;;0.68;;
54561;SDS011;40456;53.358;-1.486;2023-02-11T12:05:25;1.95;;;0.50;;
54561;SDS011;40456;53.358;-1.486;2023-02-11T12:08:07;0.95;;;0.65;;
54561;SDS011;40456;53.358;-1.486;2023-02-11T12:10:53;1.73;;;0.90;;
54561;SDS011;40456;53.358;-1.486;2023-02-11T12:13:42;1.10;;;0.83;;
54561;SDS011;40456;53.358;-1.486;2023-02-11T12:16:13;1.63;;;0.90;;
54561;SDS011;40456;53.358;-1.486;2023-02-11T12:19:06;1.92;;;1.40;;
54561;SDS011;40456;53.358;-1.486;2023-02-11T12:27:40;5.45;;;2.90;;
54561;SDS011;40456;53.358;-1.486;2023-02-11T12:35:53;5.65;;;2.45;;
54561;SDS011;40456;53.358;-1.486;2023-02-11T12:38:31;3.63;;;1.83;;
54561;SDS011;40456;53.358;-1.486;2023-02-11T12:44:04;3.47;;;1.88;;
54561;SDS011;40456;53.358;-1.486;2023-02-11T12:49:05;2.65;;;1.58;;
54561;SDS011;40456;53.358;-1.486;2023-02-11T13:01:56;1.75;;;1.30;;
54561;SDS011;40456;53.358;-1.486;2023-02-11T13:07:22;1.00;;;0.90;;
54561;SDS011;40456;53.358;-1.486;2023-02-11T13:10:00;1.70;;;0.90;;
54561;SDS011;40456;53.358;-1.486;2023-02-11T13:12:35;3.13;;;0.80;;
54561;SDS011;40456;53.358;-1.486;2023-02-11T13:15:19;1.00;;;0.60;;
54561;SDS011;40456;53.358;-1.486;2023-02-11T13:17:50;0.88;;;0.60;;
54561;SDS011;40456;53.358;-1.486;2023-02-11T13:20:26;1.38;;;0.65;;
54561;SDS011;40456;53.358;-1.486;2023-02-11T13:25:57;1.67;;;0.93;;
54561;SDS011;40456;53.358;-1.486;2023-02-11T13:28:41;0.82;;;0.63;;
54561;SDS011;40456;53.358;-1.486;2023-02-11T13:31:11;0.60;;;0.55;;
54561;SDS011;40456;53.358;-1.486;2023-02-11T13:33:39;3.17;;;0.70;;
54561;SDS011;40456;53.358;-1.486;2023-02-11T13:38:33;0.80;;;0.70;;
54561;SDS011;40456;53.358;-1.486;2023-02-11T13:41:19;2.15;;;0.70;;
54561;SDS011;40456;53.358;-1.486;2023-02-11T13:43:58;2.17;;;0.80;;
54561;SDS011;40456;53.358;-1.486;2023-02-11T13:46:24;1.75;;;0.98;;
54561;SDS011;40456;53.358;-1.486;2023-02-11T13:48:52;3.78;;;1.20;;
54561;SDS011;40456;53.358;-1.486;2023-02-11T13:53:58;0.88;;;0.70;;
54561;SDS011;40456;53.358;-1.486;2023-02-11T13:56:29;1.15;;;0.95;;
54561;SDS011;40456;53.358;-1.486;2023-02-11T13:58:57;1.77;;;1.20;;
54561;SDS011;40456;53.358;-1.486;2023-02-11T14:04:31;1.20;;;0.70;;
54561;SDS011;40456;53.358;-1.486;2023-02-11T14:07:29;1.42;;;0.80;;
54561;SDS011;40456;53.358;-1.486;2023-02-11T14:15:44;1.35;;;0.60;;
54561;SDS011;40456;53.358;-1.486;2023-02-11T14:21:22;1.63;;;0.93;;
54561;SDS011;40456;53.358;-1.486;2023-02-11T14:23:50;1.98;;;1.17;;
54561;SDS011;40456;53.358;-1.486;2023-02-11T14:31:42;2.10;;;1.38;;
54561;SDS011;40456;53.358;-1.486;2023-02-11T14:34:36;3.00;;;1.55;;
54561;SDS011;40456;53.358;-1.486;2023-02-11T14:37:34;1.83;;;1.10;;
54561;SDS011;40456;53.358;-1.486;2023-02-11T14:42:46;1.33;;;0.93;;
54561;SDS011;40456;53.358;-1.486;2023-02-11T14:45:15;1.55;;;1.00;;
54561;SDS011;40456;53.358;-1.486;2023-02-11T14:47:53;2.17;;;1.08;;
54561;SDS011;40456;53.358;-1.486;2023-02-11T14:50:27;1.63;;;1.10;;
54561;SDS011;40456;53.358;-1.486;2023-02-11T14:52:59;1.27;;;0.98;;
54561;SDS011;40456;53.358;-1.486;2023-02-11T14:55:27;2.22;;;1.00;;
54561;SDS011;40456;53.358;-1.486;2023-02-11T14:58:34;1.25;;;0.90;;
54561;SDS011;40456;53.358;-1.486;2023-02-11T15:03:34;2.60;;;1.10;;
54561;SDS011;40456;53.358;-1.486;2023-02-11T15:08:59;0.60;;;0.60;;
54561;SDS011;40456;53.358;-1.486;2023-02-11T15:11:30;1.70;;;1.00;;
54561;SDS011;40456;53.358;-1.486;2023-02-11T15:14:24;1.83;;;1.20;;
54561;SDS011;40456;53.358;-1.486;2023-02-11T15:16:52;1.25;;;0.65;;
54561;SDS011;40456;53.358;-1.486;2023-02-11T15:19:23;1.00;;;0.90;;
54561;SDS011;40456;53.358;-1.486;2023-02-11T15:21:57;0.98;;;0.70;;
54561;SDS011;40456;53.358;-1.486;2023-02-11T15:24:24;1.65;;;1.08;;
54561;SDS011;40456;53.358;-1.486;2023-02-11T15:29:42;1.55;;;0.65;;
54561;SDS011;40456;53.358;-1.486;2023-02-11T15:32:15;1.17;;;0.82;;
54561;SDS011;40456;53.358;-1.486;2023-02-11T15:34:42;1.73;;;0.77;;
54561;SDS011;40456;53.358;-1.486;2023-02-11T15:37:11;1.20;;;0.65;;
54561;SDS011;40456;53.358;-1.486;2023-02-11T15:39:41;0.80;;;0.68;;
54561;SDS011;40456;53.358;-1.486;2023-02-11T15:42:20;0.82;;;0.63;;
54561;SDS011;40456;53.358;-1.486;2023-02-11T15:47:53;0.98;;;0.73;;
54561;SDS011;40456;53.358;-1.486;2023-02-11T15:50:21;2.13;;;1.08;;
54561;SDS011;40456;53.358;-1.486;2023-02-11T15:52:49;1.98;;;1.17;;
54561;SDS011;40456;53.358;-1.486;2023-02-11T15:55:15;1.48;;;0.75;;
54561;SDS011;40456;53.358;-1.486;2023-02-11T15:57:42;1.58;;;1.08;;
54561;SDS011;40456;53.358;-1.486;2023-02-11T16:00:14;3.45;;;1.27;;
54561;SDS011;40456;53.358;-1.486;2023-02-11T16:02:43;1.95;;;1.15;;
54561;SDS011;40456;53.358;-1.486;2023-02-11T16:05:29;2.00;;;1.30;;
54561;SDS011;40456;53.358;-1.486;2023-02-11T16:07:57;1.38;;;1.02;;
54561;SDS011;40456;53.358;-1.486;2023-02-11T16:13:15;2.47;;;1.50;;
54561;SDS011;40456;53.358;-1.486;2023-02-11T16:15:44;1.77;;;1.15;;
54561;SDS011;40456;53.358;-1.486;2023-02-11T16:18:35;2.60;;;1.40;;
54561;SDS011;40456;53.358;-1.486;2023-02-11T16:21:01;1.77;;;0.85;;
54561;SDS011;40456;53.358;-1.486;2023-02-11T16:23:36;3.00;;;0.90;;
54561;SDS011;40456;53.358;-1.486;2023-02-11T16:26:04;2.20;;;1.35;;
54561;SDS011;40456;53.358;-1.486;2023-02-11T16:28:48;2.20;;;1.25;;
54561;SDS011;40456;53.358;-1.486;2023-02-11T16:31:13;1.65;;;1.08;;
54561;SDS011;40456;53.358;-1.486;2023-02-11T16:33:39;1.63;;;0.95;;
54561;SDS011;40456;53.358;-1.486;2023-02-11T16:36:11;1.98;;;1.17;;
54561;SDS011;40456;53.358;-1.486;2023-02-11T16:41:03;1.60;;;0.90;;
54561;SDS011;40456;53.358;-1.486;2023-02-11T16:43:28;1.20;;;0.90;;
54561;SDS011;40456;53.358;-1.486;2023-02-11T16:45:54;1.15;;;0.80;;
54561;SDS011;40456;53.358;-1.486;2023-02-11T16:48:19;1.33;;;0.80;;
54561;SDS011;40456;53.358;-1.486;2023-02-11T16:50:46;1.30;;;1.02;;
54561;SDS011;40456;53.358;-1.486;2023-02-11T16:53:14;1.42;;;1.17;;
54561;SDS011;40456;53.358;-1.486;2023-02-11T16:55:42;1.90;;;1.08;;
54561;SDS011;40456;53.358;-1.486;2023-02-11T16:58:08;1.77;;;0.95;;
54561;SDS011;40456;53.358;-1.486;2023-02-11T17:00:34;2.22;;;1.33;;
54561;SDS011;40456;53.358;-1.486;2023-02-11T17:03:00;2.05;;;1.02;;
54561;SDS011;40456;53.358;-1.486;2023-02-11T17:05:25;1.88;;;1.02;;
54561;SDS011;40456;53.358;-1.486;2023-02-11T17:07:51;1.38;;;0.80;;
54561;SDS011;40456;53.358;-1.486;2023-02-11T17:10:18;1.23;;;1.00;;
54561;SDS011;40456;53.358;-1.486;2023-02-11T17:12:45;1.00;;;0.60;;
54561;SDS011;40456;53.358;-1.486;2023-02-11T17:15:10;2.00;;;1.13;;